createdAt,value
2018-03-11T00:02:22.681Z,11.20
2018-03-11T00:04:50.253Z,11.20
2018-03-11T00:07:17.833Z,11.10
2018-03-11T00:09:45.733Z,11.00
2018-03-11T00:12:13.342Z,11.00
2018-03-11T00:14:40.934Z,10.90
2018-03-11T00:17:08.540Z,10.90
2018-03-11T00:19:36.111Z,10.90
2018-03-11T00:22:03.734Z,10.90
2018-03-11T00:24:31.472Z,10.90
2018-03-11T00:26:59.030Z,10.90
2018-03-11T00:29:26.597Z,10.90
2018-03-11T00:31:54.223Z,11.00
2018-03-11T00:34:21.817Z,10.90
2018-03-11T00:36:49.397Z,11.00
2018-03-11T00:39:17.782Z,11.00
2018-03-11T00:41:46.118Z,11.00
2018-03-11T00:44:13.696Z,10.90
2018-03-11T00:46:41.305Z,11.00
2018-03-11T00:49:08.920Z,11.00
2018-03-11T00:51:36.878Z,11.00
2018-03-11T00:54:04.445Z,10.90
2018-03-11T00:56:32.025Z,11.00
2018-03-11T00:59:00.779Z,11.00
2018-03-11T01:01:28.348Z,10.90
2018-03-11T01:06:27.407Z,11.00
2018-03-11T01:08:54.962Z,10.90
2018-03-11T01:11:22.525Z,10.90
2018-03-11T01:13:50.134Z,10.90
2018-03-11T01:16:17.722Z,10.90
2018-03-11T01:18:46.099Z,11.00
2018-03-11T01:21:14.439Z,11.00
2018-03-11T01:23:42.067Z,10.90
2018-03-11T01:26:09.619Z,11.10
2018-03-11T01:28:37.213Z,11.00
2018-03-11T01:31:04.789Z,11.00
2018-03-11T01:33:32.602Z,11.00
2018-03-11T01:36:00.152Z,11.00
2018-03-11T01:38:27.750Z,11.00
2018-03-11T01:40:55.308Z,11.10
2018-03-11T01:43:22.884Z,11.10
2018-03-11T01:45:50.730Z,11.10
2018-03-11T01:48:18.313Z,11.20
2018-03-11T01:50:45.890Z,11.10
2018-03-11T01:53:14.232Z,10.80
2018-03-11T01:55:41.829Z,10.80
2018-03-11T01:58:10.203Z,10.60
2018-03-11T02:00:38.884Z,10.50
2018-03-11T02:03:07.204Z,10.60
2018-03-11T02:05:34.831Z,10.50
2018-03-11T02:08:03.200Z,10.50
2018-03-11T02:10:30.808Z,10.40
2018-03-11T02:12:58.374Z,10.50
2018-03-11T02:15:25.987Z,10.40
2018-03-11T02:17:54.354Z,10.20
2018-03-11T02:20:22.727Z,10.10
2018-03-11T02:22:50.366Z,10.10
2018-03-11T02:25:18.037Z,10.10
2018-03-11T02:27:46.555Z,10.00
2018-03-11T02:30:14.162Z,9.90
2018-03-11T02:32:41.768Z,9.80
2018-03-11T02:35:10.103Z,9.50
2018-03-11T02:37:37.734Z,9.40
2018-03-11T02:40:05.333Z,9.50
2018-03-11T02:42:34.427Z,8.90
2018-03-11T02:45:02.817Z,8.80
2018-03-11T02:47:31.152Z,8.80
2018-03-11T02:49:58.758Z,8.70
2018-03-11T02:52:27.159Z,8.60
2018-03-11T02:54:54.741Z,8.50
2018-03-11T02:57:22.596Z,8.50
2018-03-11T02:59:50.149Z,8.60
2018-03-11T03:02:17.738Z,8.60
2018-03-11T03:04:45.282Z,8.60
2018-03-11T03:07:12.876Z,8.60
2018-03-11T03:09:40.464Z,8.50
2018-03-11T03:12:12.677Z,8.40
2018-03-11T03:14:40.367Z,8.30
2018-03-11T03:17:09.478Z,8.00
2018-03-11T03:19:37.053Z,8.00
2018-03-11T03:22:05.401Z,7.90
2018-03-11T03:24:32.971Z,7.80
2018-03-11T03:27:00.576Z,7.80
2018-03-11T03:29:28.167Z,7.70
2018-03-11T03:31:55.763Z,7.60
2018-03-11T03:34:24.140Z,7.70
2018-03-11T03:36:52.450Z,7.50
2018-03-11T03:39:20.029Z,7.50
2018-03-11T03:41:47.622Z,7.50
2018-03-11T03:44:15.200Z,7.50
2018-03-11T03:46:43.856Z,7.60
2018-03-11T03:49:11.445Z,7.50
2018-03-11T03:51:39.766Z,8.00
2018-03-11T03:54:07.373Z,7.90
2018-03-11T03:56:35.709Z,7.70
2018-03-11T03:59:03.493Z,7.60
2018-03-11T04:01:31.076Z,7.60
2018-03-11T04:03:59.761Z,7.70
2018-03-11T04:06:28.147Z,7.60
2018-03-11T04:08:56.475Z,7.60
2018-03-11T04:11:24.081Z,7.50
2018-03-11T04:13:52.433Z,7.60
2018-03-11T04:16:21.514Z,7.70
2018-03-11T04:18:49.238Z,7.70
2018-03-11T04:21:16.818Z,7.80
2018-03-11T04:23:44.391Z,7.90
2018-03-11T04:26:11.995Z,7.80
2018-03-11T04:28:40.321Z,7.90
2018-03-11T04:31:07.893Z,7.80
2018-03-11T04:33:35.521Z,7.90
2018-03-11T04:36:03.099Z,7.80
2018-03-11T04:38:30.668Z,7.90
2018-03-11T04:40:58.275Z,7.90
2018-03-11T04:43:25.870Z,7.80
2018-03-11T04:45:53.429Z,7.80
2018-03-11T04:48:21.037Z,7.60
2018-03-11T04:50:50.083Z,7.50
2018-03-11T04:53:17.666Z,7.40
2018-03-11T04:55:45.243Z,7.60
2018-03-11T04:58:13.639Z,7.60
2018-03-11T05:00:41.201Z,7.50
2018-03-11T05:03:08.790Z,7.70
2018-03-11T05:05:36.398Z,7.60
2018-03-11T05:08:04.776Z,7.70
2018-03-11T05:10:33.126Z,7.50
2018-03-11T05:13:00.782Z,7.40
2018-03-11T05:15:28.375Z,7.50
2018-03-11T05:17:56.733Z,7.70
2018-03-11T05:20:24.310Z,7.60
2018-03-11T05:22:52.710Z,7.70
2018-03-11T05:25:20.307Z,7.60
2018-03-11T05:27:47.885Z,7.70
2018-03-11T05:30:17.003Z,7.40
2018-03-11T05:32:45.363Z,7.60
2018-03-11T05:35:13.690Z,7.60
2018-03-11T05:37:41.268Z,7.50
2018-03-11T05:40:08.869Z,7.60
2018-03-11T05:42:36.467Z,7.70
2018-03-11T05:45:04.030Z,7.70
2018-03-11T05:47:31.627Z,7.80
2018-03-11T05:49:59.267Z,7.70
2018-03-11T05:52:26.847Z,7.70
2018-03-11T05:54:54.615Z,7.60
2018-03-11T05:57:22.181Z,7.70
2018-03-11T05:59:50.518Z,7.50
2018-03-11T06:02:18.128Z,7.40
2018-03-11T06:04:46.504Z,7.60
2018-03-11T06:07:14.837Z,7.80
2018-03-11T06:09:42.464Z,7.70
2018-03-11T06:12:10.813Z,7.90
2018-03-11T06:14:39.199Z,8.00
2018-03-11T06:17:06.805Z,7.90
2018-03-11T06:19:34.371Z,8.10
2018-03-11T06:22:01.931Z,8.10
2018-03-11T06:24:29.542Z,8.20
2018-03-11T06:26:57.877Z,8.30
2018-03-11T06:29:25.494Z,8.30
2018-03-11T06:31:53.886Z,8.50
2018-03-11T06:34:21.468Z,8.40
2018-03-11T06:36:49.470Z,8.50
2018-03-11T06:39:17.096Z,8.60
2018-03-11T06:41:45.373Z,8.70
2018-03-11T06:44:12.993Z,8.60
2018-03-11T06:46:40.602Z,8.70
2018-03-11T06:49:08.174Z,8.70
2018-03-11T06:51:36.143Z,8.80
2018-03-11T06:54:03.715Z,8.90
2018-03-11T06:56:31.286Z,9.00
2018-03-11T06:58:59.910Z,9.10
2018-03-11T07:01:27.500Z,9.00
2018-03-11T07:03:55.074Z,9.20
2018-03-11T07:06:22.681Z,9.20
2018-03-11T07:08:50.243Z,9.30
2018-03-11T07:11:17.810Z,9.30
2018-03-11T07:13:45.403Z,9.40
2018-03-11T07:16:12.961Z,9.50
2018-03-11T07:18:40.509Z,9.50
2018-03-11T07:21:08.102Z,9.60
2018-03-11T07:23:36.454Z,9.80
2018-03-11T07:26:04.026Z,9.70
2018-03-11T07:28:31.613Z,9.80
2018-03-11T07:30:59.181Z,9.90
2018-03-11T07:33:26.809Z,10.00
2018-03-11T07:35:54.400Z,10.00
2018-03-11T07:38:22.009Z,10.10
2018-03-11T07:40:49.589Z,10.20
2018-03-11T07:43:17.988Z,10.40
2018-03-11T07:45:46.359Z,10.50
2018-03-11T07:48:14.999Z,10.70
2018-03-11T07:50:42.570Z,10.60
2018-03-11T07:53:10.113Z,10.70
2018-03-11T07:55:37.733Z,10.80
2018-03-11T07:58:05.317Z,10.90
2018-03-11T08:00:32.895Z,10.90
2018-03-11T08:03:00.505Z,10.90
2018-03-11T08:05:28.833Z,11.10
2018-03-11T08:07:56.463Z,11.10
2018-03-11T08:10:24.067Z,11.30
2018-03-11T08:12:51.761Z,11.30
2018-03-11T08:15:20.109Z,11.50
2018-03-11T08:17:48.001Z,11.50
2018-03-11T08:20:16.425Z,11.70
2018-03-11T08:22:44.722Z,11.80
2018-03-11T08:25:12.338Z,11.80
2018-03-11T08:27:39.974Z,11.80
2018-03-11T08:30:08.310Z,11.80
2018-03-11T08:32:35.878Z,11.80
2018-03-11T08:35:03.499Z,11.80
2018-03-11T08:37:31.075Z,11.80
2018-03-11T08:39:58.661Z,11.70
2018-03-11T08:42:27.041Z,11.80
2018-03-11T08:44:54.628Z,11.70
2018-03-11T08:47:22.992Z,12.00
2018-03-11T08:49:50.598Z,11.90
2018-03-11T08:52:18.168Z,12.00
2018-03-11T08:54:45.757Z,12.00
2018-03-11T08:57:13.340Z,12.00
2018-03-11T08:59:41.734Z,11.90
2018-03-11T09:02:09.325Z,11.80
2018-03-11T09:04:36.909Z,11.80
2018-03-11T09:07:04.868Z,11.80
2018-03-11T09:09:32.436Z,11.70
2018-03-11T09:12:00.051Z,11.70
2018-03-11T09:14:27.643Z,11.70
2018-03-11T09:16:55.215Z,11.60
2018-03-11T09:19:23.188Z,11.60
2018-03-11T09:21:50.777Z,11.60
2018-03-11T09:24:19.114Z,11.80
2018-03-11T09:26:46.740Z,11.80
2018-03-11T09:29:14.320Z,11.90
2018-03-11T09:31:41.934Z,12.00
2018-03-11T09:34:10.274Z,12.10
2018-03-11T09:36:37.932Z,12.10
2018-03-11T09:39:05.509Z,12.10
2018-03-11T09:41:33.845Z,12.20
2018-03-11T09:44:01.489Z,12.20
2018-03-11T09:46:29.239Z,12.40
2018-03-11T09:48:56.769Z,12.50
2018-03-11T09:51:24.628Z,12.60
2018-03-11T09:53:52.211Z,12.70
2018-03-11T09:56:20.554Z,12.80
2018-03-11T09:58:48.181Z,12.80
2018-03-11T10:01:15.894Z,12.80
2018-03-11T10:03:43.492Z,12.80
2018-03-11T10:06:11.055Z,12.70
2018-03-11T10:08:38.695Z,12.70
2018-03-11T10:11:06.564Z,12.60
2018-03-11T10:13:35.037Z,12.60
2018-03-11T10:16:03.394Z,12.50
2018-03-11T10:18:31.756Z,12.40
2018-03-11T10:20:59.336Z,12.40
2018-03-11T10:23:28.063Z,12.60
2018-03-11T10:25:55.643Z,12.60
2018-03-11T10:28:23.211Z,12.70
2018-03-11T10:30:50.818Z,12.90
2018-03-11T10:33:18.421Z,13.10
2018-03-11T10:35:46.302Z,13.20
2018-03-11T10:38:13.890Z,13.20
2018-03-11T10:40:42.532Z,13.10
2018-03-11T10:43:10.153Z,13.10
2018-03-11T10:45:37.877Z,13.10
2018-03-11T10:48:07.299Z,13.00
2018-03-11T10:50:35.661Z,13.20
2018-03-11T10:53:03.286Z,13.10
2018-03-11T10:55:30.898Z,13.20
2018-03-11T10:57:59.254Z,13.30
2018-03-11T11:00:28.611Z,13.20
2018-03-11T11:03:01.722Z,13.20
2018-03-11T11:05:29.311Z,13.20
2018-03-11T11:07:56.923Z,13.30
2018-03-11T11:10:24.594Z,13.20
2018-03-11T11:12:52.197Z,13.30
2018-03-11T11:15:20.551Z,13.50
2018-03-11T11:17:48.163Z,13.40
2018-03-11T11:20:15.773Z,13.60
2018-03-11T11:22:43.373Z,13.90
2018-03-11T11:25:10.999Z,14.10
2018-03-11T11:27:39.367Z,14.60
2018-03-11T11:30:06.945Z,14.50
2018-03-11T11:32:35.509Z,14.90
2018-03-11T11:35:03.090Z,14.80
2018-03-11T11:37:31.506Z,14.90
2018-03-11T11:39:59.123Z,14.90
2018-03-11T11:42:27.491Z,14.80
2018-03-11T11:44:55.947Z,14.90
2018-03-11T11:47:23.508Z,14.80
2018-03-11T11:49:51.074Z,14.80
2018-03-11T11:52:18.960Z,14.90
2018-03-11T11:54:46.549Z,15.00
2018-03-11T11:57:14.901Z,15.20
2018-03-11T11:59:42.526Z,15.20
2018-03-11T12:02:10.116Z,15.10
2018-03-11T12:04:37.686Z,15.10
2018-03-11T12:07:05.649Z,15.10
2018-03-11T12:09:34.618Z,15.00
2018-03-11T12:12:02.247Z,14.90
2018-03-11T12:14:29.862Z,14.80
2018-03-11T12:16:58.195Z,14.60
2018-03-11T12:19:25.760Z,14.50
2018-03-11T12:21:53.372Z,14.40
2018-03-11T12:24:21.706Z,14.40
2018-03-11T12:26:49.731Z,14.30
2018-03-11T12:29:17.297Z,14.30
2018-03-11T12:31:44.865Z,14.20
2018-03-11T12:34:12.476Z,14.20
2018-03-11T12:36:41.547Z,14.10
2018-03-11T12:39:09.120Z,14.10
2018-03-11T12:41:36.731Z,14.10
2018-03-11T12:44:04.311Z,14.10
2018-03-11T12:46:31.887Z,14.20
2018-03-11T12:48:59.504Z,14.30
2018-03-11T12:51:27.631Z,14.40
2018-03-11T12:53:55.234Z,14.50
2018-03-11T12:56:22.840Z,14.60
2018-03-11T12:58:50.424Z,14.60
2018-03-11T13:01:17.981Z,14.60
2018-03-11T13:03:45.685Z,14.60
2018-03-11T13:06:13.643Z,14.70
2018-03-11T13:08:41.220Z,14.60
2018-03-11T13:11:08.820Z,14.70
2018-03-11T13:13:37.941Z,14.80
2018-03-11T13:16:06.283Z,14.90
2018-03-11T13:18:33.856Z,14.90
2018-03-11T13:21:09.420Z,15.00
2018-03-11T13:23:37.766Z,15.10
2018-03-11T13:26:05.336Z,15.10
2018-03-11T13:28:44.961Z,15.20
2018-03-11T13:31:12.532Z,15.10
2018-03-11T13:33:52.047Z,15.10
2018-03-11T13:36:19.615Z,15.20
2018-03-11T13:38:59.470Z,15.30
2018-03-11T13:41:27.037Z,15.30
2018-03-11T13:43:56.208Z,15.30
2018-03-11T13:46:35.519Z,15.40
2018-03-11T13:49:03.083Z,15.40
2018-03-11T13:51:43.182Z,15.30
2018-03-11T13:54:11.518Z,15.20
2018-03-11T13:56:39.089Z,15.20
2018-03-11T13:59:06.674Z,15.00
2018-03-11T14:01:34.265Z,15.00
2018-03-11T14:04:02.226Z,15.00
2018-03-11T14:06:29.854Z,14.80
2018-03-11T14:08:57.463Z,14.80
2018-03-11T14:11:25.033Z,14.90
2018-03-11T14:13:52.932Z,14.90
2018-03-11T14:16:20.505Z,14.90
2018-03-11T14:18:48.085Z,14.80
2018-03-11T14:21:16.544Z,14.90
2018-03-11T14:23:44.132Z,14.80
2018-03-11T14:26:12.464Z,14.80
2018-03-11T14:28:40.081Z,14.70
2018-03-11T14:31:07.646Z,14.70
2018-03-11T14:33:35.206Z,14.70
2018-03-11T14:36:02.797Z,14.70
2018-03-11T14:38:31.153Z,14.60
2018-03-11T14:40:58.720Z,14.60
2018-03-11T14:43:26.313Z,14.60
2018-03-11T14:45:53.897Z,14.50
2018-03-11T14:48:22.236Z,14.50
2018-03-11T14:50:49.859Z,14.40
2018-03-11T14:53:17.432Z,14.40
2018-03-11T14:55:45.003Z,14.40
2018-03-11T14:58:12.628Z,14.40
2018-03-11T15:00:40.236Z,14.30
2018-03-11T15:03:08.432Z,14.30
2018-03-11T15:05:36.380Z,14.20
2018-03-11T15:08:03.981Z,14.20
2018-03-11T15:10:31.548Z,14.10
2018-03-11T15:12:59.385Z,14.10
2018-03-11T15:15:28.464Z,14.00
2018-03-11T15:17:56.656Z,14.00
2018-03-11T15:20:24.278Z,14.10
2018-03-11T15:22:51.858Z,14.10
2018-03-11T15:25:19.418Z,14.10
2018-03-11T15:27:47.053Z,14.20
2018-03-11T15:30:14.731Z,14.20
2018-03-11T15:32:42.305Z,14.20
2018-03-11T15:35:10.684Z,14.30
2018-03-11T15:37:38.258Z,14.20
2018-03-11T15:40:06.650Z,14.30
2018-03-11T15:42:34.981Z,14.30
2018-03-11T15:45:02.545Z,14.20
2018-03-11T15:47:30.511Z,14.20
2018-03-11T15:49:58.084Z,14.20
2018-03-11T15:52:25.673Z,14.20
2018-03-11T15:54:53.663Z,14.30
2018-03-11T15:57:21.240Z,14.30
2018-03-11T15:59:48.820Z,14.30
2018-03-11T16:02:16.437Z,14.50
2018-03-11T16:04:44.020Z,14.60
2018-03-11T16:07:11.597Z,14.70
2018-03-11T16:09:39.567Z,14.80
2018-03-11T16:12:07.134Z,14.90
2018-03-11T16:14:34.711Z,14.90
2018-03-11T16:17:03.084Z,14.70
2018-03-11T16:19:31.420Z,14.60
2018-03-11T16:21:59.032Z,14.60
2018-03-11T16:24:28.699Z,14.40
2018-03-11T16:26:55.188Z,14.40
2018-03-11T16:29:22.746Z,14.30
2018-03-11T16:31:50.333Z,14.20
2018-03-11T16:34:17.950Z,14.20
2018-03-11T16:36:46.254Z,14.00
2018-03-11T16:39:13.867Z,13.90
2018-03-11T16:41:41.442Z,13.90
2018-03-11T16:44:09.784Z,13.80
2018-03-11T16:46:37.411Z,13.70
2018-03-11T16:49:04.991Z,13.70
2018-03-11T16:51:32.575Z,13.60
2018-03-11T16:54:00.191Z,13.60
2018-03-11T16:56:27.781Z,13.50
2018-03-11T16:58:55.353Z,13.50
2018-03-11T17:01:24.016Z,14.00
2018-03-11T17:03:51.637Z,14.00
2018-03-11T17:06:19.243Z,14.00
2018-03-11T17:08:46.840Z,13.90
2018-03-11T17:11:15.143Z,13.70
2018-03-11T17:13:43.119Z,13.70
2018-03-11T17:16:10.683Z,13.50
2018-03-11T17:18:38.260Z,13.40
2018-03-11T17:21:05.882Z,13.20
2018-03-11T17:23:33.455Z,13.00
2018-03-11T17:26:01.018Z,12.70
2018-03-11T17:28:28.894Z,12.50
2018-03-11T17:30:56.469Z,12.30
2018-03-11T17:33:24.040Z,12.20
2018-03-11T17:35:52.007Z,12.00
2018-03-11T17:38:19.592Z,11.90
2018-03-11T17:40:47.932Z,11.50
2018-03-11T17:43:15.804Z,11.40
2018-03-11T17:45:43.394Z,11.30
2018-03-11T17:48:11.734Z,10.90
2018-03-11T17:50:39.362Z,10.90
2018-03-11T17:53:06.938Z,10.70
2018-03-11T17:55:34.501Z,10.80
2018-03-11T17:58:02.347Z,10.70
2018-03-11T18:00:29.916Z,10.60
2018-03-11T18:02:57.574Z,10.50
2018-03-11T18:05:25.211Z,10.30
2018-03-11T18:07:53.737Z,10.20
2018-03-11T18:10:21.346Z,10.10
2018-03-11T18:12:49.996Z,9.90
2018-03-11T18:15:18.332Z,9.80
2018-03-11T18:17:45.908Z,9.80
2018-03-11T18:20:13.508Z,9.80
2018-03-11T18:22:41.852Z,9.70
2018-03-11T18:25:09.459Z,9.70
2018-03-11T18:27:37.806Z,9.60
2018-03-11T18:30:05.376Z,9.60
2018-03-11T18:32:32.966Z,9.60
2018-03-11T18:35:00.854Z,9.60
2018-03-11T18:37:28.458Z,9.60
2018-03-11T18:39:56.008Z,9.50
2018-03-11T18:42:23.613Z,9.50
2018-03-11T18:44:51.261Z,9.70
2018-03-11T18:47:18.822Z,9.70
2018-03-11T18:49:46.445Z,9.80
2018-03-11T18:52:14.807Z,9.60
2018-03-11T18:54:42.512Z,9.60
2018-03-11T18:57:10.891Z,9.40
2018-03-11T18:59:39.217Z,9.40
2018-03-11T19:02:06.804Z,9.30
2018-03-11T19:04:35.195Z,9.50
2018-03-11T19:07:03.533Z,9.40
2018-03-11T19:09:31.110Z,9.40
2018-03-11T19:11:58.741Z,9.30
2018-03-11T19:14:26.328Z,9.10
2018-03-11T19:16:53.898Z,8.90
2018-03-11T19:19:21.530Z,8.80
2018-03-11T19:21:49.095Z,8.70
2018-03-11T19:24:16.715Z,8.90
2018-03-11T19:26:44.625Z,8.80
2018-03-11T19:29:12.227Z,9.00
2018-03-11T19:31:40.614Z,8.90
2018-03-11T19:34:08.239Z,8.80
2018-03-11T19:36:35.823Z,8.70
2018-03-11T19:39:04.164Z,8.40
2018-03-11T19:41:31.769Z,8.40
2018-03-11T19:43:59.376Z,8.30
2018-03-11T19:46:26.994Z,8.20
2018-03-11T19:48:55.367Z,8.20
2018-03-11T19:51:22.924Z,8.20
2018-03-11T19:53:50.528Z,8.30
2018-03-11T19:56:18.459Z,8.20
2018-03-11T19:58:46.097Z,8.10
2018-03-11T20:01:14.459Z,8.20
2018-03-11T20:03:43.846Z,8.10
2018-03-11T20:06:11.435Z,8.00
2018-03-11T20:08:39.778Z,8.40
2018-03-11T20:11:07.391Z,8.30
2018-03-11T20:13:35.413Z,8.50
2018-03-11T20:16:03.104Z,8.50
2018-03-11T20:18:31.499Z,8.20
2018-03-11T20:20:59.080Z,8.10
2018-03-11T20:23:26.705Z,8.10
2018-03-11T20:25:55.043Z,7.90
2018-03-11T20:28:22.612Z,7.80
2018-03-11T20:30:50.683Z,7.70
2018-03-11T20:33:18.289Z,7.60
2018-03-11T20:35:45.855Z,7.70
2018-03-11T20:38:13.474Z,7.80
2018-03-11T20:40:41.100Z,7.90
2018-03-11T20:43:08.691Z,7.80
2018-03-11T20:48:08.375Z,7.60
2018-03-11T20:50:35.971Z,7.60
2018-03-11T20:53:03.550Z,7.50
2018-03-11T20:55:33.544Z,7.40
2018-03-11T20:58:01.138Z,7.30
2018-03-11T21:00:29.172Z,7.30
2018-03-11T21:02:57.134Z,7.20
2018-03-11T21:05:24.712Z,7.10
2018-03-11T21:07:52.270Z,7.20
2018-03-11T21:10:20.899Z,7.10
2018-03-11T21:12:48.479Z,7.00
2018-03-11T21:15:16.046Z,7.10
2018-03-11T21:17:43.766Z,7.10
2018-03-11T21:20:11.349Z,7.10
2018-03-11T21:22:38.905Z,7.00
2018-03-11T21:25:06.503Z,7.10
2018-03-11T21:27:34.097Z,7.10
2018-03-11T21:30:01.905Z,7.20
2018-03-11T21:32:29.537Z,7.20
2018-03-11T21:34:57.099Z,7.10
2018-03-11T21:37:24.664Z,7.10
2018-03-11T21:39:52.265Z,7.00
2018-03-11T21:42:20.011Z,7.00
2018-03-11T21:44:48.353Z,7.20
2018-03-11T21:47:15.917Z,7.10
2018-03-11T21:49:43.536Z,7.10
2018-03-11T21:52:11.959Z,7.40
2018-03-11T21:54:39.520Z,7.30
2018-03-11T21:57:07.106Z,7.50
2018-03-11T21:59:34.970Z,7.70
2018-03-11T22:02:02.533Z,7.70
2018-03-11T22:04:30.115Z,7.60
2018-03-11T22:06:58.515Z,7.50
2018-03-11T22:09:26.846Z,7.70
2018-03-11T22:11:54.423Z,7.60
2018-03-11T22:14:22.828Z,7.80
2018-03-11T22:16:50.418Z,7.70
2018-03-11T22:19:17.998Z,7.70
2018-03-11T22:21:45.591Z,7.90
2018-03-11T22:24:14.011Z,8.00
2018-03-11T22:26:41.592Z,8.00
2018-03-11T22:29:09.190Z,8.10
2018-03-11T22:31:37.695Z,8.10
2018-03-11T22:34:05.266Z,8.00
2018-03-11T22:36:32.827Z,8.20
2018-03-11T22:39:00.435Z,8.20
2018-03-11T22:41:28.019Z,8.20
2018-03-11T22:43:56.373Z,8.30
2018-03-11T22:46:23.978Z,8.20
2018-03-11T22:48:51.551Z,8.30
2018-03-11T22:51:19.139Z,8.30
2018-03-11T22:53:46.761Z,8.20
2018-03-11T22:56:14.330Z,8.20
2018-03-11T22:58:41.915Z,8.30
2018-03-11T23:01:09.543Z,8.30
2018-03-11T23:03:37.115Z,8.30
2018-03-11T23:06:04.683Z,8.30
2018-03-11T23:08:32.310Z,8.20
2018-03-11T23:10:59.907Z,8.10
2018-03-11T23:13:27.481Z,8.10
2018-03-11T23:15:55.093Z,7.90
2018-03-11T23:18:22.684Z,7.70
2018-03-11T23:20:50.259Z,7.60
2018-03-11T23:23:17.858Z,7.40
2018-03-11T23:25:45.792Z,7.20
2018-03-11T23:28:13.363Z,6.90
2018-03-11T23:30:41.703Z,6.70
2018-03-11T23:33:09.318Z,6.60
2018-03-11T23:35:36.925Z,6.50
2018-03-11T23:38:04.538Z,6.40
2018-03-11T23:40:32.102Z,6.30
2018-03-11T23:42:59.667Z,6.20
2018-03-11T23:45:27.460Z,6.10
2018-03-11T23:47:55.053Z,6.10
2018-03-11T23:50:22.625Z,6.10
2018-03-11T23:52:51.293Z,5.90
2018-03-11T23:55:18.856Z,5.90
2018-03-11T23:57:47.193Z,5.80
